Time;durP1;ratioP1;P1;durP2;ratioP2;P2;SDS_P1;SDS_P2;PMS_P1;PMS_P2;Temp;Humidity;BMP_temperature;BMP_pressure;BME280_temperature;BME280_humidity;BME280_pressure;Samples;Min_cycle;Max_cycle;Signal;HPM_P1;HPM_P2
2021/01/23 00:00:26;;;;;;;20.20;13.55;;;;;;;2.61;73.27;98399.81;5019520;28;20061;-79
2021/01/23 00:02:53;;;;;;;20.75;13.88;;;;;;;2.63;72.30;98394.81;5019374;28;20129;-79
2021/01/23 00:05:21;;;;;;;22.15;14.18;;;;;;;2.58;72.50;98401.25;5020223;28;20053;-79
2021/01/23 00:07:47;;;;;;;31.90;17.17;;;;;;;2.59;72.59;98402.06;5017519;28;20049;-79
2021/01/23 00:10:14;;;;;;;28.25;16.25;;;;;;;2.57;72.98;98398.81;4999646;28;20061;-79
2021/01/23 00:12:41;;;;;;;23.88;14.98;;;;;;;2.54;72.87;98402.19;5015885;28;20057;-79
2021/01/23 00:15:09;;;;;;;32.47;17.40;;;;;;;2.53;72.53;98395.06;5016334;28;20109;-79
2021/01/23 00:17:36;;;;;;;26.70;15.60;;;;;;;2.55;73.07;98399.13;5019263;28;20057;-79
2021/01/23 00:20:04;;;;;;;22.63;12.48;;;;;;;2.55;72.97;98395.56;5018672;28;20136;-79
2021/01/23 00:22:31;;;;;;;17.75;11.85;;;;;;;2.57;72.49;98390.56;5019345;28;20077;-79
2021/01/23 00:24:58;;;;;;;18.63;11.38;;;;;;;2.54;72.73;98399.44;5016977;28;20053;-79
2021/01/23 00:27:25;;;;;;;18.30;11.00;;;;;;;2.56;72.88;98398.00;5017278;28;20045;-78
2021/01/23 00:29:52;;;;;;;20.13;11.68;;;;;;;2.62;73.24;98401.44;5017206;28;20058;-77
2021/01/23 00:32:19;;;;;;;16.10;12.07;;;;;;;2.65;72.80;98403.56;5017140;28;20069;-78
2021/01/23 00:34:45;;;;;;;19.58;12.80;;;;;;;2.58;72.13;98393.03;5017268;28;20060;-78
2021/01/23 00:37:12;;;;;;;19.00;13.50;;;;;;;2.54;72.65;98396.69;5017320;28;20062;-77
2021/01/23 00:39:40;;;;;;;21.80;13.15;;;;;;;2.51;72.41;98403.63;5017092;28;20057;-77
2021/01/23 00:42:09;;;;;;;17.85;12.23;;;;;;;2.53;73.32;98406.88;5015586;28;20061;-77
2021/01/23 00:44:36;;;;;;;21.43;12.27;;;;;;;2.54;73.21;98402.19;5017216;28;20430;-78
2021/01/23 00:47:03;;;;;;;21.95;13.43;;;;;;;2.54;73.29;98413.16;5016974;28;20503;-78
2021/01/23 00:49:30;;;;;;;20.40;13.43;;;;;;;2.51;73.46;98395.38;5016687;28;20056;-78
2021/01/23 00:51:57;;;;;;;20.10;13.20;;;;;;;2.51;72.47;98408.31;5017056;28;20359;-78
2021/01/23 00:54:23;;;;;;;18.33;13.07;;;;;;;2.50;73.13;98402.00;5015872;28;20057;-78
2021/01/23 00:56:51;;;;;;;21.58;13.27;;;;;;;2.54;73.09;98403.00;5017242;28;20053;-78
2021/01/23 00:59:20;;;;;;;20.52;12.70;;;;;;;2.56;73.22;98413.66;5016575;28;20054;-78
2021/01/23 01:01:47;;;;;;;17.77;11.85;;;;;;;2.55;73.23;98412.88;5016792;28;20495;-78
2021/01/23 01:04:14;;;;;;;25.83;14.50;;;;;;;2.49;73.01;98414.09;5016246;28;20050;-78
2021/01/23 01:06:41;;;;;;;22.75;14.75;;;;;;;2.51;73.19;98427.53;5016839;28;20049;-77
2021/01/23 01:09:08;;;;;;;23.20;14.57;;;;;;;2.47;73.35;98426.53;5015286;28;20053;-78
2021/01/23 01:11:34;;;;;;;21.95;13.75;;;;;;;2.40;72.57;98419.53;5016821;28;20057;-78
2021/01/23 01:14:02;;;;;;;21.25;13.48;;;;;;;2.42;72.76;98433.78;5016074;28;20058;-78
2021/01/23 01:16:29;;;;;;;22.05;14.18;;;;;;;2.40;73.24;98430.53;5016619;28;20050;-78
2021/01/23 01:18:58;;;;;;;26.38;15.45;;;;;;;2.40;72.92;98436.03;5016039;28;20104;-78
2021/01/23 01:21:25;;;;;;;23.50;14.45;;;;;;;2.35;73.10;98436.16;5016472;28;20375;-78
2021/01/23 01:23:52;;;;;;;22.48;14.05;;;;;;;2.33;72.92;98430.16;5012977;28;20050;-78
2021/01/23 01:26:19;;;;;;;27.00;14.93;;;;;;;2.35;73.74;98444.41;5016084;28;20432;-77
2021/01/23 01:28:49;;;;;;;22.60;14.00;;;;;;;2.32;73.15;98445.00;5015578;28;20408;-78
2021/01/23 01:31:17;;;;;;;24.15;14.30;;;;;;;2.34;73.67;98447.44;5016277;28;20050;-77
2021/01/23 01:33:43;;;;;;;22.77;14.02;;;;;;;2.36;73.11;98445.22;5015642;28;20054;-78
2021/01/23 01:36:11;;;;;;;21.70;13.70;;;;;;;2.40;72.90;98441.53;5015895;28;20061;-78
2021/01/23 01:38:37;;;;;;;20.60;12.90;;;;;;;2.40;73.08;98447.03;5015318;28;20069;-78
2021/01/23 01:41:04;;;;;;;24.65;14.18;;;;;;;2.41;73.10;98450.56;5015980;28;20054;-78
2021/01/23 01:43:31;;;;;;;22.98;12.38;;;;;;;2.42;72.68;98450.28;5015775;28;20050;-78
2021/01/23 01:45:58;;;;;;;17.83;12.38;;;;;;;2.37;73.32;98447.66;5016690;28;20487;-78
2021/01/23 01:48:29;;;;;;;19.48;13.63;;;;;;;2.38;73.10;98454.75;5015527;28;20080;-78
2021/01/23 01:50:56;;;;;;;22.85;13.80;;;;;;;2.34;73.26;98441.97;5015310;28;20053;-78
2021/01/23 01:53:23;;;;;;;20.77;13.55;;;;;;;2.30;73.17;98452.75;5013352;28;20065;-78
2021/01/23 01:55:50;;;;;;;20.02;14.57;;;;;;;2.33;73.62;98452.13;5014215;28;20423;-78
2021/01/23 01:58:16;;;;;;;19.42;14.02;;;;;;;2.31;73.66;98445.31;5015643;28;20483;-78
2021/01/23 02:00:43;;;;;;;18.80;12.68;;;;;;;2.33;73.76;98446.66;5015206;28;20065;-78
2021/01/23 02:03:35;;;;;;;21.05;14.20;;;;;;;2.27;73.66;98445.13;5015739;28;20066;-78
2021/01/23 02:06:16;;;;;;;20.67;12.95;;;;;;;2.30;73.94;98447.25;5015915;28;20065;-78
2021/01/23 02:08:49;;;;;;;22.73;15.27;;;;;;;2.23;73.12;98450.44;5014429;28;20161;-78
2021/01/23 02:11:27;;;;;;;21.67;13.98;;;;;;;2.24;74.10;98456.72;5014701;28;20065;-78
2021/01/23 02:14:01;;;;;;;24.65;15.23;;;;;;;2.26;73.67;98454.47;5015403;28;20065;-78
2021/01/23 02:16:34;;;;;;;23.88;14.65;;;;;;;2.28;73.91;98454.19;5014284;28;20054;-78
2021/01/23 02:19:12;;;;;;;19.67;13.35;;;;;;;2.28;74.09;98444.00;5015660;28;20053;-78
2021/01/23 02:22:08;;;;;;;24.33;14.90;;;;;;;2.33;74.25;98440.31;5017113;28;20061;-78
2021/01/23 02:24:35;;;;;;;21.25;14.02;;;;;;;2.30;73.66;98440.94;5019512;28;20073;-77
2021/01/23 02:27:18;;;;;;;25.17;14.93;;;;;;;2.35;74.41;98443.56;5014135;28;20053;-78
2021/01/23 02:29:57;;;;;;;23.75;14.40;;;;;;;2.37;73.75;98442.16;5014916;28;20065;-78
2021/01/23 02:32:29;;;;;;;23.23;14.98;;;;;;;2.36;74.14;98453.44;5014321;28;20053;-78
2021/01/23 02:34:56;;;;;;;23.48;15.15;;;;;;;2.18;74.05;98447.81;5014998;28;20069;-78
2021/01/23 02:37:24;;;;;;;23.20;15.85;;;;;;;2.25;74.10;98455.63;5014748;28;20057;-78
2021/01/23 02:39:52;;;;;;;21.73;14.90;;;;;;;2.30;74.29;98449.19;5014514;28;20054;-78
2021/01/23 02:42:19;;;;;;;20.63;14.35;;;;;;;2.34;74.43;98453.75;5014535;28;20141;-78
2021/01/23 02:44:46;;;;;;;22.50;13.73;;;;;;;2.39;74.52;98456.41;5014526;28;20488;-77
2021/01/23 02:47:13;;;;;;;21.48;13.55;;;;;;;2.43;74.36;98449.13;5015327;28;20049;-78
2021/01/23 02:49:41;;;;;;;19.88;13.18;;;;;;;2.49;73.73;98457.28;5014928;28;20427;-78
2021/01/23 02:52:16;;;;;;;24.40;14.40;;;;;;;2.47;73.75;98462.25;5014532;28;20097;-77
2021/01/23 02:54:50;;;;;;;23.13;13.65;;;;;;;2.44;74.04;98453.53;4999496;28;20058;-78
2021/01/23 02:57:20;;;;;;;24.33;13.43;;;;;;;2.43;73.85;98449.13;4994606;28;20053;-78
2021/01/23 02:59:50;;;;;;;22.92;14.35;;;;;;;2.48;74.60;98436.41;4994674;28;20420;-78
2021/01/23 03:02:18;;;;;;;;;;;;;;;2.47;75.07;98438.34;4995543;28;20054;-78
2021/01/23 03:04:47;;;;;;;23.52;13.57;;;;;;;2.47;75.28;98440.28;4994716;28;20291;-78
2021/01/23 03:07:16;;;;;;;22.35;13.13;;;;;;;2.46;74.67;98433.16;4994422;28;20058;-78
2021/01/23 03:09:43;;;;;;;24.02;14.75;;;;;;;2.43;74.27;98427.16;5013112;28;20475;-78
2021/01/23 03:12:11;;;;;;;24.75;15.60;;;;;;;2.44;74.58;98422.50;5014598;28;20400;-78
2021/01/23 03:14:38;;;;;;;22.73;14.40;;;;;;;2.47;74.75;98419.09;5014506;28;20057;-78
2021/01/23 03:17:05;;;;;;;24.83;16.40;;;;;;;2.44;73.97;98426.03;5014267;28;20050;-78
2021/01/23 03:19:32;;;;;;;27.33;16.02;;;;;;;2.51;74.44;98420.09;5014712;28;20334;-78
2021/01/23 03:22:00;;;;;;;23.88;14.90;;;;;;;2.48;73.55;98415.25;5016400;28;20054;-78
2021/01/23 03:24:27;;;;;;;21.15;14.15;;;;;;;2.48;73.87;98425.41;5016461;28;20054;-78
2021/01/23 03:26:54;;;;;;;19.05;13.15;;;;;;;2.46;73.38;98423.00;5018336;28;20057;-78
2021/01/23 03:29:21;;;;;;;21.33;13.00;;;;;;;2.40;73.34;98425.03;5017834;28;20430;-78
2021/01/23 03:31:50;;;;;;;21.77;13.15;;;;;;;2.37;73.14;98424.84;5018823;28;20058;-78
2021/01/23 03:34:17;;;;;;;24.42;13.43;;;;;;;2.31;73.45;98426.91;5017651;28;20061;-78
2021/01/23 03:36:46;;;;;;;19.83;13.50;;;;;;;2.26;73.38;98418.78;5017974;28;20062;-78
2021/01/23 03:39:14;;;;;;;21.03;13.63;;;;;;;2.27;73.17;98425.06;5017395;28;20050;-78
2021/01/23 03:41:41;;;;;;;24.77;13.50;;;;;;;2.24;73.99;98419.06;5018743;28;20060;-78
2021/01/23 03:44:08;;;;;;;22.55;14.07;;;;;;;2.23;74.14;98422.16;5018149;28;20057;-78
2021/01/23 03:46:36;;;;;;;25.58;14.23;;;;;;;2.19;73.94;98423.91;5018031;28;20064;-78
2021/01/23 03:49:03;;;;;;;23.20;15.70;;;;;;;2.15;73.78;98417.41;5017781;28;20407;-78
2021/01/23 03:51:30;;;;;;;21.27;14.27;;;;;;;2.13;74.03;98419.63;5018650;28;20050;-78
2021/01/23 03:53:57;;;;;;;27.63;17.00;;;;;;;2.07;73.97;98413.44;5017409;28;20050;-78
2021/01/23 03:56:27;;;;;;;25.33;15.18;;;;;;;2.12;74.41;98413.34;5018164;28;20057;-78
2021/01/23 03:58:54;;;;;;;27.95;15.73;;;;;;;2.14;74.64;98410.25;5018349;28;20064;-78
2021/01/23 04:01:21;;;;;;;25.58;15.80;;;;;;;2.12;74.86;98412.50;5018182;28;20498;-78
2021/01/23 04:03:48;;;;;;;27.88;16.35;;;;;;;2.15;74.72;98418.19;5018079;28;20050;-78
2021/01/23 04:06:15;;;;;;;25.60;15.68;;;;;;;2.17;75.11;98412.41;5018497;28;20057;-78
2021/01/23 04:08:42;;;;;;;27.63;16.00;;;;;;;2.17;75.35;98415.16;5017037;28;20061;-78
2021/01/23 04:11:09;;;;;;;24.15;15.63;;;;;;;2.18;75.87;98406.59;5018001;28;20057;-78
2021/01/23 04:13:36;;;;;;;24.42;15.73;;;;;;;2.18;75.41;98405.78;5018276;28;20065;-78
2021/01/23 04:16:05;;;;;;;24.42;15.48;;;;;;;2.16;75.43;98406.09;5017146;28;20057;-78
2021/01/23 04:18:32;;;;;;;25.60;15.98;;;;;;;2.18;75.45;98401.13;5018066;28;20054;-78
2021/01/23 04:20:59;;;;;;;25.95;16.02;;;;;;;2.19;75.53;98404.66;5017111;28;20149;-78
2021/01/23 04:23:26;;;;;;;26.55;16.23;;;;;;;2.20;75.40;98403.53;5015813;28;20058;-78
2021/01/23 04:25:53;;;;;;;25.40;16.33;;;;;;;2.19;75.67;98390.94;5017719;28;20077;-78
2021/01/23 04:28:19;;;;;;;24.63;15.68;;;;;;;2.21;75.24;98386.75;5017353;28;20057;-78
2021/01/23 04:30:47;;;;;;;21.08;14.48;;;;;;;2.22;74.61;98387.56;5017262;28;20053;-78
2021/01/23 04:33:15;;;;;;;24.45;15.40;;;;;;;2.20;75.36;98389.81;5015719;28;20406;-78
2021/01/23 04:35:42;;;;;;;24.55;15.43;;;;;;;2.21;74.67;98388.69;5017277;28;20093;-78
2021/01/23 04:38:09;;;;;;;24.02;14.68;;;;;;;2.20;74.33;98382.38;5016152;28;20352;-78
2021/01/23 04:40:36;;;;;;;21.10;14.18;;;;;;;2.20;73.98;98387.06;5017433;28;20057;-78
2021/01/23 04:43:03;;;;;;;25.63;14.75;;;;;;;2.11;75.10;98373.25;5017584;28;20120;-78
2021/01/23 04:45:30;;;;;;;22.40;14.30;;;;;;;2.08;74.84;98371.16;5017025;28;20061;-78
2021/01/23 04:47:58;;;;;;;22.83;15.00;;;;;;;2.10;74.49;98376.31;5017425;28;20045;-78
2021/01/23 04:50:25;;;;;;;24.13;15.63;;;;;;;2.11;74.86;98377.94;5017315;28;20108;-78
2021/01/23 04:52:54;;;;;;;24.90;15.35;;;;;;;2.08;74.07;98370.31;5016088;28;20054;-78
2021/01/23 04:55:21;;;;;;;25.30;16.30;;;;;;;2.01;74.15;98373.50;4996952;28;20065;-78
2021/01/23 04:57:48;;;;;;;26.77;16.00;;;;;;;1.98;74.78;98363.94;4997260;28;20058;-79
2021/01/23 05:00:15;;;;;;;25.02;15.52;;;;;;;1.98;74.96;98357.66;4997662;28;20480;-78
2021/01/23 05:02:59;;;;;;;25.02;16.15;;;;;;;2.01;75.47;98359.75;4997049;28;20048;-78
2021/01/23 05:05:26;;;;;;;19.10;11.00;;;;;;;2.05;76.41;98347.03;4997488;28;20057;-78
2021/01/23 05:07:53;;;;;;;19.52;11.63;;;;;;;2.12;76.38;98341.94;4999602;28;20038;-78
2021/01/23 05:10:23;;;;;;;19.08;10.23;;;;;;;2.18;76.54;98340.69;5014190;28;20046;-78
2021/01/23 05:12:51;;;;;;;13.75;8.95;;;;;;;2.23;76.82;98334.25;5014982;28;20487;-78
2021/01/23 05:15:24;;;;;;;14.85;10.13;;;;;;;2.31;75.86;98339.00;5015044;28;20475;-78
2021/01/23 05:17:57;;;;;;;16.27;10.10;;;;;;;2.34;75.90;98332.88;5014654;28;20072;-77
2021/01/23 05:20:38;;;;;;;19.00;10.93;;;;;;;2.40;75.65;98337.13;5014558;28;20054;-77
2021/01/23 05:23:07;;;;;;;18.73;12.57;;;;;;;2.43;75.19;98322.75;5013359;28;20045;-78
2021/01/23 05:25:36;;;;;;;21.40;9.63;;;;;;;2.46;74.71;98326.81;5013930;28;20072;-77
2021/01/23 05:28:05;;;;;;;16.40;8.73;;;;;;;2.49;75.39;98328.13;5014685;28;20058;-77
2021/01/23 05:30:45;;;;;;;15.13;9.85;;;;;;;2.55;74.98;98324.13;5014322;28;20495;-77
2021/01/23 05:33:14;;;;;;;10.93;6.63;;;;;;;2.57;74.64;98324.63;5014551;28;20061;-77
2021/01/23 05:35:43;;;;;;;13.27;7.45;;;;;;;2.60;74.30;98323.97;5014361;28;20073;-77
2021/01/23 05:38:24;;;;;;;13.82;8.38;;;;;;;2.65;74.68;98329.34;5013237;28;20407;-77
2021/01/23 05:40:55;;;;;;;14.90;8.95;;;;;;;2.70;74.55;98326.47;4997858;28;20066;-77
2021/01/23 05:43:33;;;;;;;18.52;9.57;;;;;;;2.74;74.58;98323.91;4994537;28;20389;-77
2021/01/23 05:46:02;;;;;;;15.48;8.52;;;;;;;2.79;74.19;98330.09;4994375;28;20058;-77
2021/01/23 05:48:29;;;;;;;13.95;9.18;;;;;;;2.89;74.18;98326.22;4994581;28;20057;-78
2021/01/23 05:50:57;;;;;;;11.38;7.63;;;;;;;2.94;73.34;98328.03;4994789;28;20475;-77
2021/01/23 05:53:23;;;;;;;10.88;6.75;;;;;;;2.99;73.66;98333.41;4998122;28;20161;-77
2021/01/23 05:55:51;;;;;;;14.63;7.53;;;;;;;3.01;73.34;98333.91;5014053;28;20054;-77
2021/01/23 05:58:18;;;;;;;11.55;6.28;;;;;;;3.03;73.67;98337.13;5014255;28;20050;-77
2021/01/23 06:00:48;;;;;;;11.95;7.15;;;;;;;3.08;72.86;98337.00;5013987;28;20058;-78
2021/01/23 06:03:16;;;;;;;12.70;8.35;;;;;;;3.05;72.88;98340.38;5014916;28;20414;-78
2021/01/23 06:05:43;;;;;;;14.35;9.18;;;;;;;3.06;72.48;98333.75;5013873;28;20046;-79
2021/01/23 06:08:11;;;;;;;15.65;10.57;;;;;;;3.02;73.14;98341.84;5013725;28;20060;-77
2021/01/23 06:10:42;;;;;;;13.68;9.48;;;;;;;3.04;72.69;98347.00;5012440;28;20045;-78
2021/01/23 06:13:42;;;;;;;17.52;10.88;;;;;;;3.02;72.79;98347.34;4996235;28;20065;-77
2021/01/23 06:16:39;;;;;;;16.10;9.52;;;;;;;3.02;72.74;98341.84;5014012;28;20054;-78
2021/01/23 06:19:39;;;;;;;19.15;10.57;;;;;;;3.00;73.06;98338.59;5013434;28;20056;-78
2021/01/23 06:22:06;;;;;;;17.88;9.63;;;;;;;3.05;73.39;98332.94;5014472;28;20057;-77
2021/01/23 06:24:56;;;;;;;13.73;7.97;;;;;;;3.11;73.78;98344.63;5013037;28;20045;-78
2021/01/23 06:27:46;;;;;;;11.75;6.75;;;;;;;3.13;73.55;98342.38;5013705;28;20057;-77
2021/01/23 06:30:29;;;;;;;9.75;5.85;;;;;;;3.22;73.48;98334.94;5013150;28;20466;-78
2021/01/23 06:32:57;;;;;;;9.48;5.55;;;;;;;3.30;73.19;98335.28;5001530;28;20054;-78
2021/01/23 06:35:23;;;;;;;9.27;6.10;;;;;;;3.31;72.93;98337.72;4994355;28;20050;-78
2021/01/23 06:37:50;;;;;;;8.13;5.53;;;;;;;3.36;73.44;98334.84;4995611;28;20061;-78
2021/01/23 06:40:29;;;;;;;10.60;6.00;;;;;;;3.42;72.68;98349.25;4995780;28;20046;-78
2021/01/23 06:42:56;;;;;;;7.18;4.88;;;;;;;3.41;72.75;98342.13;4994908;28;20388;-78
2021/01/23 06:45:29;;;;;;;7.80;4.82;;;;;;;3.47;72.33;98348.31;4995871;28;20066;-78
2021/01/23 06:47:58;;;;;;;7.70;5.07;;;;;;;3.55;72.24;98353.00;5009621;28;20057;-78
2021/01/23 06:50:33;;;;;;;5.93;4.30;;;;;;;3.55;72.20;98350.25;5014876;28;20057;-78
2021/01/23 06:53:01;;;;;;;10.82;5.07;;;;;;;3.56;72.21;98336.16;5019489;28;20053;-78
2021/01/23 06:55:48;;;;;;;7.05;4.60;;;;;;;3.66;71.43;98337.81;5014931;28;20058;-79
2021/01/23 06:58:17;;;;;;;8.05;5.07;;;;;;;3.76;71.69;98342.19;5021877;28;20046;-78
2021/01/23 07:00:45;;;;;;;6.10;3.70;;;;;;;3.78;72.67;98346.25;5021889;28;20494;-79
2021/01/23 07:03:13;;;;;;;8.30;4.72;;;;;;;3.81;72.41;98355.81;5011601;28;20061;-79
2021/01/23 07:05:59;;;;;;;8.75;5.40;;;;;;;3.81;71.77;98350.31;5022165;28;20054;-79
2021/01/23 07:08:29;;;;;;;7.60;5.22;;;;;;;3.91;72.91;98355.50;5024232;28;20046;-79
2021/01/23 07:11:11;;;;;;;8.15;5.97;;;;;;;3.97;72.48;98365.22;5021600;28;20053;-79
2021/01/23 07:13:40;;;;;;;10.07;5.45;;;;;;;3.97;73.26;98365.22;5006320;28;20050;-79
2021/01/23 07:16:07;;;;;;;9.20;5.43;;;;;;;4.06;72.88;98368.78;5003161;28;20062;-79
2021/01/23 07:18:34;;;;;;;8.90;5.53;;;;;;;4.12;72.02;98363.94;5003233;28;20054;-79
2021/01/23 07:21:02;;;;;;;7.30;5.07;;;;;;;4.19;72.17;98357.94;5003185;28;20058;-79
2021/01/23 07:23:31;;;;;;;9.10;5.30;;;;;;;4.24;72.39;98355.84;5003779;28;20484;-79
2021/01/23 07:26:01;;;;;;;7.80;4.57;;;;;;;4.30;72.13;98353.72;5022061;28;20062;-78
2021/01/23 07:28:31;;;;;;;9.18;5.10;;;;;;;4.16;72.48;98344.81;5020605;28;20050;-78
2021/01/23 07:30:58;;;;;;;9.38;5.10;;;;;;;4.24;72.56;98349.50;5020333;28;20045;-78
2021/01/23 07:33:43;;;;;;;7.72;4.70;;;;;;;4.18;71.31;98348.03;5020512;28;20054;-78
2021/01/23 07:36:10;;;;;;;8.57;4.90;;;;;;;4.16;71.79;98350.31;5021064;28;20061;-78
2021/01/23 07:38:37;;;;;;;8.90;5.60;;;;;;;4.22;72.15;98351.78;5020777;28;20050;-78
2021/01/23 07:41:04;;;;;;;8.88;5.10;;;;;;;4.25;71.04;98351.94;5020562;28;20050;-78
2021/01/23 07:43:32;;;;;;;7.50;5.28;;;;;;;4.19;71.30;98360.69;5018694;28;20053;-78
2021/01/23 07:45:59;;;;;;;9.35;5.75;;;;;;;4.23;72.14;98353.41;5007405;28;20050;-78
2021/01/23 07:48:26;;;;;;;8.98;5.90;;;;;;;4.26;71.52;98344.47;5010009;28;20460;-78
2021/01/23 07:50:56;;;;;;;8.38;5.38;;;;;;;4.29;72.00;98349.34;5004743;28;20058;-78
2021/01/23 07:53:24;;;;;;;10.35;6.05;;;;;;;4.28;71.89;98350.47;5000766;28;20392;-78
2021/01/23 07:55:52;;;;;;;10.82;6.60;;;;;;;4.25;70.93;98346.44;5000893;28;20490;-78
2021/01/23 07:58:20;;;;;;;7.35;6.03;;;;;;;4.31;71.22;98340.78;5001098;28;20421;-78
2021/01/23 08:00:47;;;;;;;8.43;6.05;;;;;;;4.26;71.42;98347.22;5001339;28;20062;-80
2021/01/23 08:03:14;;;;;;;8.82;6.28;;;;;;;4.36;71.45;98349.66;5017234;28;20399;-79
2021/01/23 08:05:44;;;;;;;8.40;6.18;;;;;;;4.31;71.72;98355.34;5022179;28;20045;-78
2021/01/23 08:08:12;;;;;;;9.45;6.50;;;;;;;4.46;71.05;98343.81;5015984;28;20086;-78
2021/01/23 08:10:39;;;;;;;10.55;6.75;;;;;;;4.42;70.81;98353.06;5011151;28;20050;-78
2021/01/23 08:13:08;;;;;;;8.80;6.07;;;;;;;4.52;70.57;98338.16;5015277;28;20046;-78
2021/01/23 08:15:36;;;;;;;8.70;6.45;;;;;;;4.52;70.35;98349.97;5009018;28;20491;-78
2021/01/23 08:18:15;;;;;;;9.95;6.78;;;;;;;4.59;69.92;98343.97;5014732;28;20065;-79
2021/01/23 08:20:43;;;;;;;8.50;5.20;;;;;;;4.70;69.13;98348.00;5011106;28;20065;-79
2021/01/23 08:23:11;;;;;;;8.05;5.95;;;;;;;4.82;69.19;98334.34;5014015;28;20996;-80
2021/01/23 08:25:45;;;;;;;9.40;6.00;;;;;;;4.92;69.09;98337.88;5005164;28;20058;-77
2021/01/23 08:28:13;;;;;;;8.98;6.20;;;;;;;5.08;68.85;98337.03;5015727;28;20510;-78
2021/01/23 08:30:41;;;;;;;9.48;6.35;;;;;;;5.24;67.74;98334.50;5015925;28;20503;-78
2021/01/23 08:33:12;;;;;;;9.35;6.30;;;;;;;5.34;66.83;98341.59;5016770;28;20061;-78
2021/01/23 08:35:41;;;;;;;10.68;6.70;;;;;;;5.42;67.47;98334.44;5013369;28;20046;-79
2021/01/23 08:38:09;;;;;;;8.38;6.43;;;;;;;5.13;68.15;98327.75;5012105;28;20054;-79
2021/01/23 08:40:37;;;;;;;8.60;6.07;;;;;;;5.14;68.05;98323.81;5014160;28;20069;-79
2021/01/23 08:43:04;;;;;;;7.93;6.05;;;;;;;5.14;68.49;98323.81;5015331;28;20057;-79
2021/01/23 08:45:31;;;;;;;9.43;6.80;;;;;;;5.00;67.98;98329.59;5015393;28;20057;-80
2021/01/23 08:47:58;;;;;;;12.20;7.47;;;;;;;5.01;68.93;98324.88;5018738;28;20059;-81
2021/01/23 08:50:26;;;;;;;8.70;6.07;;;;;;;4.96;68.54;98328.63;5017982;28;20046;-79
2021/01/23 08:52:53;;;;;;;8.80;6.70;;;;;;;5.01;68.30;98328.44;5013676;28;20054;-79
2021/01/23 08:55:20;;;;;;;10.18;6.25;;;;;;;5.07;68.55;98329.88;5014867;28;20069;-78
2021/01/23 08:57:47;;;;;;;8.52;5.15;;;;;;;4.99;68.29;98327.94;5017573;28;20061;-78
2021/01/23 09:00:15;;;;;;;9.27;6.82;;;;;;;4.98;68.75;98325.53;5013524;28;20046;-78
2021/01/23 09:02:42;;;;;;;8.85;6.82;;;;;;;5.05;69.55;98347.91;5013449;28;20064;-78
2021/01/23 09:05:11;;;;;;;8.43;6.43;;;;;;;4.96;68.97;98336.09;5014582;28;20061;-78
2021/01/23 09:07:39;;;;;;;9.10;6.30;;;;;;;5.08;68.35;98327.91;5011841;28;20060;-78
2021/01/23 09:10:09;;;;;;;7.78;5.22;;;;;;;5.14;68.85;98345.91;5012169;28;20053;-78
2021/01/23 09:12:36;;;;;;;9.13;5.90;;;;;;;5.05;68.31;98331.34;5018538;28;20049;-78
2021/01/23 09:15:05;;;;;;;9.77;6.45;;;;;;;5.13;69.20;98337.97;5017040;28;20058;-78
2021/01/23 09:17:32;;;;;;;8.52;6.38;;;;;;;5.35;67.87;98339.66;5012148;28;20051;-80
2021/01/23 09:19:59;;;;;;;9.15;6.47;;;;;;;5.57;66.73;98341.34;5011769;28;20214;-82
2021/01/23 09:22:26;;;;;;;8.27;6.03;;;;;;;5.76;66.39;98338.94;5015865;28;20072;-78
2021/01/23 09:24:53;;;;;;;8.82;6.30;;;;;;;6.02;65.52;98326.91;5016180;28;20069;-79
2021/01/23 09:27:20;;;;;;;7.05;5.20;;;;;;;6.20;64.66;98330.34;5016859;28;20061;-79
2021/01/23 09:29:47;;;;;;;11.50;6.28;;;;;;;6.44;64.36;98324.91;5016453;28;20054;-79
2021/01/23 09:32:14;;;;;;;7.43;6.03;;;;;;;6.81;62.61;98316.75;5018444;28;20057;-80
2021/01/23 09:34:41;;;;;;;9.68;5.68;;;;;;;7.07;62.87;98323.94;5019272;28;20072;-80
2021/01/23 09:37:08;;;;;;;8.80;6.60;;;;;;;7.69;60.66;98316.44;5016830;28;20058;-79
2021/01/23 09:39:35;;;;;;;7.28;5.00;;;;;;;10.43;50.88;98308.44;5006391;28;20050;-80
2021/01/23 09:42:03;;;;;;;7.05;5.35;;;;;;;10.52;51.02;98315.38;5018494;28;20050;-79
2021/01/23 09:44:30;;;;;;;5.15;3.55;;;;;;;10.92;49.31;98300.25;5018726;28;20053;-80
2021/01/23 09:46:57;;;;;;;7.65;5.22;;;;;;;10.72;49.98;98305.03;5020007;28;20057;-80
2021/01/23 09:49:24;;;;;;;6.60;5.05;;;;;;;9.83;52.97;98306.75;5018015;28;20057;-79
2021/01/23 09:51:54;;;;;;;8.93;5.10;;;;;;;9.37;53.94;98322.31;5016512;28;20050;-79
2021/01/23 09:54:24;;;;;;;7.85;5.47;;;;;;;8.76;56.16;98309.63;5016795;28;20049;-79
2021/01/23 09:56:53;;;;;;;7.13;5.38;;;;;;;8.71;56.73;98321.81;5016217;28;20050;-78
2021/01/23 09:59:21;;;;;;;7.97;5.68;;;;;;;8.81;56.28;98312.97;5015656;28;20065;-78
2021/01/23 10:01:47;;;;;;;7.65;5.35;;;;;;;10.30;52.44;98311.34;5014873;28;20054;-78
2021/01/23 10:04:17;;;;;;;7.50;5.28;;;;;;;10.23;53.33;98308.41;5014868;28;20054;-79
2021/01/23 10:06:44;;;;;;;6.72;4.95;;;;;;;11.21;50.48;98303.50;5016812;28;20061;-79
2021/01/23 10:09:10;;;;;;;6.72;5.63;;;;;;;12.00;47.05;98303.97;5015235;28;20054;-79
2021/01/23 10:11:37;;;;;;;7.35;5.03;;;;;;;12.58;45.61;98300.72;5016624;28;20384;-79
2021/01/23 10:14:04;;;;;;;6.43;5.55;;;;;;;13.81;41.97;98295.06;5014998;28;20056;-79
2021/01/23 10:16:32;;;;;;;7.53;5.78;;;;;;;14.46;41.17;98299.00;5016439;28;20050;-79
2021/01/23 10:19:01;;;;;;;6.38;5.20;;;;;;;13.38;42.92;98301.16;5002788;28;20046;-79
2021/01/23 10:21:28;;;;;;;7.63;5.68;;;;;;;12.54;45.05;98306.25;5013967;28;20050;-79
2021/01/23 10:23:57;;;;;;;7.20;5.75;;;;;;;11.82;46.83;98298.88;5014661;28;20491;-79
2021/01/23 10:26:24;;;;;;;6.68;5.57;;;;;;;11.24;48.75;98313.13;5016091;28;20077;-79
2021/01/23 10:28:50;;;;;;;7.68;5.72;;;;;;;10.88;49.74;98309.72;5016403;28;20054;-79
2021/01/23 10:31:17;;;;;;;7.13;5.15;;;;;;;10.44;50.98;98299.72;5014128;28;20049;-79
2021/01/23 10:33:45;;;;;;;8.77;5.82;;;;;;;9.78;51.95;98309.78;5015431;28;20372;-78
2021/01/23 10:36:12;;;;;;;7.18;5.13;;;;;;;9.23;54.05;98320.00;5014011;28;20061;-79
2021/01/23 10:38:39;;;;;;;7.18;5.53;;;;;;;9.00;54.79;98305.91;5014819;28;20046;-78
2021/01/23 10:41:06;;;;;;;7.10;5.63;;;;;;;9.06;55.32;98299.72;5015206;28;20053;-78
2021/01/23 10:43:36;;;;;;;7.40;5.55;;;;;;;8.89;55.46;98300.09;5017370;28;20080;-81
2021/01/23 10:46:03;;;;;;;5.90;5.03;;;;;;;9.02;55.87;98309.13;5012929;28;20054;-79
2021/01/23 10:48:30;;;;;;;12.95;6.20;;;;;;;9.12;55.52;98308.59;5013013;28;20058;-79
2021/01/23 10:50:58;;;;;;;9.30;5.85;;;;;;;9.40;54.35;98319.63;5015304;28;20376;-78
2021/01/23 10:53:25;;;;;;;7.38;5.13;;;;;;;9.35;54.11;98308.78;5010832;28;20046;-79
2021/01/23 10:55:51;;;;;;;9.45;5.95;;;;;;;9.19;54.89;98303.22;5012665;28;20050;-79
2021/01/23 10:58:18;;;;;;;7.70;4.90;;;;;;;9.12;54.29;98305.84;5012037;28;20411;-79
2021/01/23 11:00:45;;;;;;;9.63;5.93;;;;;;;8.79;56.48;98304.19;5015121;28;20050;-79
2021/01/23 11:03:13;;;;;;;8.00;5.95;;;;;;;8.95;56.28;98304.22;5003061;28;20073;-79
2021/01/23 11:05:40;;;;;;;7.95;5.80;;;;;;;8.97;56.08;98295.53;5015399;28;20065;-79
2021/01/23 11:08:07;;;;;;;7.78;5.45;;;;;;;9.22;55.15;98296.97;5011812;28;20492;-79
2021/01/23 11:10:35;;;;;;;7.07;5.60;;;;;;;9.30;54.94;98303.47;5013328;28;20069;-79
2021/01/23 11:13:02;;;;;;;8.40;5.65;;;;;;;9.64;53.45;98288.03;5008351;28;20050;-79
2021/01/23 11:15:28;;;;;;;7.45;5.80;;;;;;;10.60;51.14;98296.03;5013352;28;20054;-79
2021/01/23 11:17:58;;;;;;;7.45;6.00;;;;;;;11.20;49.09;98270.47;5013826;28;20056;-79
2021/01/23 11:20:26;;;;;;;6.35;5.50;;;;;;;11.71;48.05;98270.03;5013346;28;20475;-79
2021/01/23 11:22:52;;;;;;;10.32;9.05;;;;;;;13.89;42.52;98265.94;5008310;28;20326;-78
2021/01/23 11:25:20;;;;;;;10.30;9.02;;;;;;;15.41;39.07;98248.34;5010931;28;20062;-77
2021/01/23 11:27:47;;;;;;;9.68;8.88;;;;;;;16.41;36.68;98242.50;5012429;28;20066;-77
2021/01/23 11:30:15;;;;;;;8.57;7.72;;;;;;;17.57;33.85;98240.53;5012727;28;20058;-77
2021/01/23 11:32:44;;;;;;;9.88;9.18;;;;;;;17.74;33.50;98240.78;5012803;28;20050;-77
2021/01/23 11:35:11;;;;;;;7.22;6.63;;;;;;;18.25;32.83;98234.22;4993266;28;20058;-77
2021/01/23 11:37:38;;;;;;;10.77;9.82;;;;;;;17.84;33.34;98243.50;4992926;28;20125;-77
2021/01/23 11:40:06;;;;;;;18.75;17.45;;;;;;;18.53;31.25;98243.53;5008238;28;20050;-77